sensor_id;sensor_type;location;lat;lon;timestamp;P1;durP1;ratioP1;P2;durP2;ratioP2
20034;SDS011;10178;48.034;9.800;2022-12-18T00:01:40;36.83;;;18.53;;
20034;SDS011;10178;48.034;9.800;2022-12-18T00:04:07;37.30;;;19.30;;
20034;SDS011;10178;48.034;9.800;2022-12-18T00:06:43;43.60;;;21.67;;
20034;SDS011;10178;48.034;9.800;2022-12-18T00:09:09;42.60;;;20.47;;
20034;SDS011;10178;48.034;9.800;2022-12-18T00:11:35;42.20;;;20.60;;
20034;SDS011;10178;48.034;9.800;2022-12-18T00:14:01;40.77;;;20.03;;
20034;SDS011;10178;48.034;9.800;2022-12-18T00:16:27;42.83;;;20.10;;
20034;SDS011;10178;48.034;9.800;2022-12-18T00:18:55;39.60;;;20.57;;
20034;SDS011;10178;48.034;9.800;2022-12-18T00:21:22;39.87;;;19.90;;
20034;SDS011;10178;48.034;9.800;2022-12-18T00:23:49;38.73;;;18.20;;
20034;SDS011;10178;48.034;9.800;2022-12-18T00:26:17;38.83;;;19.37;;
20034;SDS011;10178;48.034;9.800;2022-12-18T00:28:43;35.13;;;18.23;;
20034;SDS011;10178;48.034;9.800;2022-12-18T00:31:10;38.23;;;20.20;;
20034;SDS011;10178;48.034;9.800;2022-12-18T00:33:38;37.93;;;18.43;;
20034;SDS011;10178;48.034;9.800;2022-12-18T00:36:09;38.27;;;19.40;;
20034;SDS011;10178;48.034;9.800;2022-12-18T00:38:37;36.00;;;18.70;;
20034;SDS011;10178;48.034;9.800;2022-12-18T00:41:03;41.90;;;21.20;;
20034;SDS011;10178;48.034;9.800;2022-12-18T00:43:29;41.97;;;19.60;;
20034;SDS011;10178;48.034;9.800;2022-12-18T00:45:54;36.73;;;18.00;;
20034;SDS011;10178;48.034;9.800;2022-12-18T00:48:20;40.60;;;19.40;;
20034;SDS011;10178;48.034;9.800;2022-12-18T00:50:49;37.13;;;19.03;;
20034;SDS011;10178;48.034;9.800;2022-12-18T00:53:16;39.87;;;18.83;;
20034;SDS011;10178;48.034;9.800;2022-12-18T00:55:42;42.03;;;20.67;;
20034;SDS011;10178;48.034;9.800;2022-12-18T00:58:08;45.70;;;19.70;;
20034;SDS011;10178;48.034;9.800;2022-12-18T01:00:35;43.63;;;20.43;;
20034;SDS011;10178;48.034;9.800;2022-12-18T01:03:01;43.13;;;20.80;;
20034;SDS011;10178;48.034;9.800;2022-12-18T01:05:27;41.97;;;20.23;;
20034;SDS011;10178;48.034;9.800;2022-12-18T01:07:53;41.33;;;19.60;;
20034;SDS011;10178;48.034;9.800;2022-12-18T01:10:18;40.30;;;19.53;;
20034;SDS011;10178;48.034;9.800;2022-12-18T01:12:44;39.30;;;18.77;;
20034;SDS011;10178;48.034;9.800;2022-12-18T01:15:11;41.03;;;20.07;;
20034;SDS011;10178;48.034;9.800;2022-12-18T01:17:38;41.77;;;19.70;;
20034;SDS011;10178;48.034;9.800;2022-12-18T01:20:04;36.93;;;18.13;;
20034;SDS011;10178;48.034;9.800;2022-12-18T01:22:30;38.07;;;18.03;;
20034;SDS011;10178;48.034;9.800;2022-12-18T01:24:58;39.03;;;18.83;;
20034;SDS011;10178;48.034;9.800;2022-12-18T01:27:24;39.13;;;19.17;;
20034;SDS011;10178;48.034;9.800;2022-12-18T01:29:49;38.90;;;19.10;;
20034;SDS011;10178;48.034;9.800;2022-12-18T01:32:15;33.93;;;18.27;;
20034;SDS011;10178;48.034;9.800;2022-12-18T01:34:41;34.47;;;17.93;;
20034;SDS011;10178;48.034;9.800;2022-12-18T01:37:06;35.63;;;19.33;;
20034;SDS011;10178;48.034;9.800;2022-12-18T01:39:32;36.60;;;17.40;;
20034;SDS011;10178;48.034;9.800;2022-12-18T01:42:05;36.80;;;18.93;;
20034;SDS011;10178;48.034;9.800;2022-12-18T01:47:32;37.67;;;18.53;;
20034;SDS011;10178;48.034;9.800;2022-12-18T01:50:18;41.50;;;19.43;;
20034;SDS011;10178;48.034;9.800;2022-12-18T01:53:01;35.10;;;18.03;;
20034;SDS011;10178;48.034;9.800;2022-12-18T01:55:31;37.17;;;18.57;;
20034;SDS011;10178;48.034;9.800;2022-12-18T01:58:02;41.23;;;19.83;;
20034;SDS011;10178;48.034;9.800;2022-12-18T02:00:29;39.77;;;18.87;;
20034;SDS011;10178;48.034;9.800;2022-12-18T02:02:55;38.37;;;18.50;;
20034;SDS011;10178;48.034;9.800;2022-12-18T02:05:40;46.70;;;21.27;;
20034;SDS011;10178;48.034;9.800;2022-12-18T02:08:27;39.17;;;18.83;;
20034;SDS011;10178;48.034;9.800;2022-12-18T02:11:25;38.43;;;19.40;;
20034;SDS011;10178;48.034;9.800;2022-12-18T02:14:23;37.73;;;18.57;;
20034;SDS011;10178;48.034;9.800;2022-12-18T02:22:24;39.87;;;18.87;;
20034;SDS011;10178;48.034;9.800;2022-12-18T02:24:59;38.83;;;18.60;;
20034;SDS011;10178;48.034;9.800;2022-12-18T02:28:02;35.30;;;18.13;;
20034;SDS011;10178;48.034;9.800;2022-12-18T02:30:31;39.10;;;19.33;;
20034;SDS011;10178;48.034;9.800;2022-12-18T02:33:00;40.63;;;19.50;;
20034;SDS011;10178;48.034;9.800;2022-12-18T02:35:29;40.50;;;18.90;;
20034;SDS011;10178;48.034;9.800;2022-12-18T02:37:57;36.13;;;18.10;;
20034;SDS011;10178;48.034;9.800;2022-12-18T02:40:24;36.37;;;18.53;;
20034;SDS011;10178;48.034;9.800;2022-12-18T02:42:52;38.63;;;18.07;;
20034;SDS011;10178;48.034;9.800;2022-12-18T02:45:18;38.20;;;18.83;;
20034;SDS011;10178;48.034;9.800;2022-12-18T02:47:44;43.00;;;20.50;;
20034;SDS011;10178;48.034;9.800;2022-12-18T02:53:09;40.40;;;19.33;;
20034;SDS011;10178;48.034;9.800;2022-12-18T03:04:04;38.90;;;18.20;;
20034;SDS011;10178;48.034;9.800;2022-12-18T03:06:42;40.43;;;18.33;;
20034;SDS011;10178;48.034;9.800;2022-12-18T03:09:14;40.07;;;18.80;;
20034;SDS011;10178;48.034;9.800;2022-12-18T03:11:46;40.83;;;18.90;;
20034;SDS011;10178;48.034;9.800;2022-12-18T03:14:37;40.70;;;18.83;;
20034;SDS011;10178;48.034;9.800;2022-12-18T03:17:05;42.40;;;18.60;;
20034;SDS011;10178;48.034;9.800;2022-12-18T03:19:37;43.70;;;20.17;;
20034;SDS011;10178;48.034;9.800;2022-12-18T03:22:04;45.90;;;19.83;;
20034;SDS011;10178;48.034;9.800;2022-12-18T03:24:32;41.80;;;19.80;;
20034;SDS011;10178;48.034;9.800;2022-12-18T03:27:02;49.97;;;20.00;;
20034;SDS011;10178;48.034;9.800;2022-12-18T03:29:49;45.47;;;20.07;;
20034;SDS011;10178;48.034;9.800;2022-12-18T03:32:26;47.57;;;20.33;;
20034;SDS011;10178;48.034;9.800;2022-12-18T03:34:56;43.57;;;18.67;;
20034;SDS011;10178;48.034;9.800;2022-12-18T03:37:26;42.73;;;18.90;;
20034;SDS011;10178;48.034;9.800;2022-12-18T03:39:51;41.13;;;18.57;;
20034;SDS011;10178;48.034;9.800;2022-12-18T03:45:11;39.80;;;19.03;;
20034;SDS011;10178;48.034;9.800;2022-12-18T03:53:16;41.43;;;19.50;;
20034;SDS011;10178;48.034;9.800;2022-12-18T03:55:52;42.70;;;18.13;;
20034;SDS011;10178;48.034;9.800;2022-12-18T03:58:22;36.13;;;17.73;;
20034;SDS011;10178;48.034;9.800;2022-12-18T04:00:50;39.57;;;17.93;;
20034;SDS011;10178;48.034;9.800;2022-12-18T04:03:18;37.00;;;17.37;;
20034;SDS011;10178;48.034;9.800;2022-12-18T04:05:46;43.07;;;19.60;;
20034;SDS011;10178;48.034;9.800;2022-12-18T04:08:15;38.63;;;18.83;;
20034;SDS011;10178;48.034;9.800;2022-12-18T04:10:41;33.37;;;17.07;;
20034;SDS011;10178;48.034;9.800;2022-12-18T04:13:06;39.17;;;17.87;;
20034;SDS011;10178;48.034;9.800;2022-12-18T04:15:33;33.63;;;17.60;;
20034;SDS011;10178;48.034;9.800;2022-12-18T04:18:00;37.33;;;17.37;;
20034;SDS011;10178;48.034;9.800;2022-12-18T04:20:26;40.67;;;20.10;;
20034;SDS011;10178;48.034;9.800;2022-12-18T04:22:52;33.93;;;17.63;;
20034;SDS011;10178;48.034;9.800;2022-12-18T04:25:18;47.10;;;20.40;;
20034;SDS011;10178;48.034;9.800;2022-12-18T04:27:43;34.80;;;17.57;;
20034;SDS011;10178;48.034;9.800;2022-12-18T04:30:09;43.57;;;19.40;;
20034;SDS011;10178;48.034;9.800;2022-12-18T04:32:35;37.90;;;17.83;;
20034;SDS011;10178;48.034;9.800;2022-12-18T04:35:01;42.80;;;18.37;;
20034;SDS011;10178;48.034;9.800;2022-12-18T04:37:29;37.47;;;17.87;;
20034;SDS011;10178;48.034;9.800;2022-12-18T04:39:54;40.83;;;19.17;;
20034;SDS011;10178;48.034;9.800;2022-12-18T04:42:20;37.30;;;18.13;;
20034;SDS011;10178;48.034;9.800;2022-12-18T04:44:46;40.03;;;19.63;;
20034;SDS011;10178;48.034;9.800;2022-12-18T04:47:11;41.83;;;19.73;;
20034;SDS011;10178;48.034;9.800;2022-12-18T04:49:37;39.33;;;18.70;;
20034;SDS011;10178;48.034;9.800;2022-12-18T04:52:02;40.10;;;18.03;;
20034;SDS011;10178;48.034;9.800;2022-12-18T04:54:28;36.97;;;17.07;;
20034;SDS011;10178;48.034;9.800;2022-12-18T04:56:54;40.87;;;18.83;;
20034;SDS011;10178;48.034;9.800;2022-12-18T04:59:19;36.50;;;18.40;;
20034;SDS011;10178;48.034;9.800;2022-12-18T05:01:45;35.40;;;18.43;;
20034;SDS011;10178;48.034;9.800;2022-12-18T05:04:11;34.23;;;16.87;;
20034;SDS011;10178;48.034;9.800;2022-12-18T05:06:36;40.50;;;19.03;;
20034;SDS011;10178;48.034;9.800;2022-12-18T05:09:02;36.17;;;18.17;;
20034;SDS011;10178;48.034;9.800;2022-12-18T05:11:28;38.80;;;18.87;;
20034;SDS011;10178;48.034;9.800;2022-12-18T05:13:53;37.80;;;17.77;;
20034;SDS011;10178;48.034;9.800;2022-12-18T05:16:22;34.77;;;17.93;;
20034;SDS011;10178;48.034;9.800;2022-12-18T05:18:47;34.23;;;17.80;;
20034;SDS011;10178;48.034;9.800;2022-12-18T05:21:13;35.33;;;18.00;;
20034;SDS011;10178;48.034;9.800;2022-12-18T05:23:39;36.70;;;18.07;;
20034;SDS011;10178;48.034;9.800;2022-12-18T05:26:05;35.20;;;17.30;;
20034;SDS011;10178;48.034;9.800;2022-12-18T05:28:33;37.97;;;18.00;;
20034;SDS011;10178;48.034;9.800;2022-12-18T05:31:00;41.23;;;19.17;;
20034;SDS011;10178;48.034;9.800;2022-12-18T05:33:28;38.33;;;19.30;;
20034;SDS011;10178;48.034;9.800;2022-12-18T05:35:58;38.70;;;18.37;;
20034;SDS011;10178;48.034;9.800;2022-12-18T05:38:29;35.23;;;18.07;;
20034;SDS011;10178;48.034;9.800;2022-12-18T05:40:56;40.73;;;20.50;;
20034;SDS011;10178;48.034;9.800;2022-12-18T05:43:22;38.03;;;18.57;;
20034;SDS011;10178;48.034;9.800;2022-12-18T05:45:48;40.33;;;18.07;;
20034;SDS011;10178;48.034;9.800;2022-12-18T05:48:14;39.63;;;18.53;;
20034;SDS011;10178;48.034;9.800;2022-12-18T05:50:42;38.77;;;18.30;;
20034;SDS011;10178;48.034;9.800;2022-12-18T05:53:10;39.23;;;18.50;;
20034;SDS011;10178;48.034;9.800;2022-12-18T05:55:37;35.53;;;17.87;;
20034;SDS011;10178;48.034;9.800;2022-12-18T05:58:04;40.90;;;19.47;;
20034;SDS011;10178;48.034;9.800;2022-12-18T06:00:32;40.57;;;18.97;;
20034;SDS011;10178;48.034;9.800;2022-12-18T06:02:59;41.53;;;19.40;;
20034;SDS011;10178;48.034;9.800;2022-12-18T06:05:25;35.67;;;18.20;;
20034;SDS011;10178;48.034;9.800;2022-12-18T06:07:51;40.87;;;19.17;;
20034;SDS011;10178;48.034;9.800;2022-12-18T06:10:17;34.67;;;17.97;;
20034;SDS011;10178;48.034;9.800;2022-12-18T06:12:43;36.23;;;18.50;;
20034;SDS011;10178;48.034;9.800;2022-12-18T06:15:09;44.37;;;18.93;;
20034;SDS011;10178;48.034;9.800;2022-12-18T06:17:34;40.93;;;19.20;;
20034;SDS011;10178;48.034;9.800;2022-12-18T06:20:01;41.13;;;19.13;;
20034;SDS011;10178;48.034;9.800;2022-12-18T06:22:27;40.87;;;18.90;;
20034;SDS011;10178;48.034;9.800;2022-12-18T06:24:52;38.80;;;18.67;;
20034;SDS011;10178;48.034;9.800;2022-12-18T06:27:18;41.87;;;18.93;;
20034;SDS011;10178;48.034;9.800;2022-12-18T06:29:44;35.10;;;17.13;;
20034;SDS011;10178;48.034;9.800;2022-12-18T06:32:09;33.87;;;16.97;;
20034;SDS011;10178;48.034;9.800;2022-12-18T06:34:37;38.03;;;18.23;;
20034;SDS011;10178;48.034;9.800;2022-12-18T06:37:02;37.37;;;17.80;;
20034;SDS011;10178;48.034;9.800;2022-12-18T06:39:28;36.93;;;19.07;;
20034;SDS011;10178;48.034;9.800;2022-12-18T06:41:54;35.77;;;17.60;;
20034;SDS011;10178;48.034;9.800;2022-12-18T06:44:19;39.77;;;19.73;;
20034;SDS011;10178;48.034;9.800;2022-12-18T06:46:45;38.90;;;19.03;;
20034;SDS011;10178;48.034;9.800;2022-12-18T06:49:10;40.63;;;18.87;;
20034;SDS011;10178;48.034;9.800;2022-12-18T06:51:36;38.53;;;18.27;;
20034;SDS011;10178;48.034;9.800;2022-12-18T06:54:02;40.50;;;19.27;;
20034;SDS011;10178;48.034;9.800;2022-12-18T06:56:28;50.47;;;24.20;;
20034;SDS011;10178;48.034;9.800;2022-12-18T06:58:53;45.93;;;21.13;;
20034;SDS011;10178;48.034;9.800;2022-12-18T07:01:20;56.50;;;23.13;;
20034;SDS011;10178;48.034;9.800;2022-12-18T07:03:46;52.30;;;21.97;;
20034;SDS011;10178;48.034;9.800;2022-12-18T07:06:17;51.57;;;20.83;;
20034;SDS011;10178;48.034;9.800;2022-12-18T07:08:44;49.60;;;19.70;;
20034;SDS011;10178;48.034;9.800;2022-12-18T07:11:10;52.87;;;20.87;;
20034;SDS011;10178;48.034;9.800;2022-12-18T07:13:36;50.63;;;21.37;;
20034;SDS011;10178;48.034;9.800;2022-12-18T07:16:03;50.80;;;20.77;;
20034;SDS011;10178;48.034;9.800;2022-12-18T07:18:36;45.27;;;18.80;;
20034;SDS011;10178;48.034;9.800;2022-12-18T07:21:06;43.73;;;19.33;;
20034;SDS011;10178;48.034;9.800;2022-12-18T07:23:33;45.23;;;19.93;;
20034;SDS011;10178;48.034;9.800;2022-12-18T07:26:00;42.20;;;19.33;;
20034;SDS011;10178;48.034;9.800;2022-12-18T07:28:30;41.43;;;20.10;;
20034;SDS011;10178;48.034;9.800;2022-12-18T07:30:57;55.70;;;25.13;;
20034;SDS011;10178;48.034;9.800;2022-12-18T07:33:23;44.37;;;19.00;;
20034;SDS011;10178;48.034;9.800;2022-12-18T07:35:49;42.50;;;18.60;;
20034;SDS011;10178;48.034;9.800;2022-12-18T07:38:15;42.63;;;19.00;;
20034;SDS011;10178;48.034;9.800;2022-12-18T07:40:47;42.63;;;18.63;;
20034;SDS011;10178;48.034;9.800;2022-12-18T07:43:12;43.27;;;20.00;;
20034;SDS011;10178;48.034;9.800;2022-12-18T07:45:38;44.13;;;20.03;;
20034;SDS011;10178;48.034;9.800;2022-12-18T07:48:04;40.77;;;19.00;;
20034;SDS011;10178;48.034;9.800;2022-12-18T07:50:30;40.53;;;18.53;;
20034;SDS011;10178;48.034;9.800;2022-12-18T07:52:55;42.43;;;18.73;;
20034;SDS011;10178;48.034;9.800;2022-12-18T07:55:21;41.03;;;18.47;;
20034;SDS011;10178;48.034;9.800;2022-12-18T07:57:47;40.53;;;18.17;;
20034;SDS011;10178;48.034;9.800;2022-12-18T08:00:12;37.80;;;17.90;;
20034;SDS011;10178;48.034;9.800;2022-12-18T08:02:38;39.00;;;17.97;;
20034;SDS011;10178;48.034;9.800;2022-12-18T08:05:04;43.73;;;19.53;;
20034;SDS011;10178;48.034;9.800;2022-12-18T08:07:30;41.03;;;18.77;;
20034;SDS011;10178;48.034;9.800;2022-12-18T08:09:55;43.83;;;18.80;;
20034;SDS011;10178;48.034;9.800;2022-12-18T08:12:21;42.63;;;19.33;;
20034;SDS011;10178;48.034;9.800;2022-12-18T08:14:47;46.37;;;19.20;;
20034;SDS011;10178;48.034;9.800;2022-12-18T08:17:12;42.50;;;18.53;;
20034;SDS011;10178;48.034;9.800;2022-12-18T08:19:38;38.77;;;18.53;;
20034;SDS011;10178;48.034;9.800;2022-12-18T08:22:03;41.50;;;18.23;;
20034;SDS011;10178;48.034;9.800;2022-12-18T08:24:29;43.03;;;17.87;;
20034;SDS011;10178;48.034;9.800;2022-12-18T08:26:55;38.37;;;18.00;;
20034;SDS011;10178;48.034;9.800;2022-12-18T08:29:22;38.40;;;16.90;;
20034;SDS011;10178;48.034;9.800;2022-12-18T08:34:18;38.37;;;17.60;;
20034;SDS011;10178;48.034;9.800;2022-12-18T08:36:43;38.07;;;17.17;;
20034;SDS011;10178;48.034;9.800;2022-12-18T08:39:09;35.77;;;16.57;;
20034;SDS011;10178;48.034;9.800;2022-12-18T08:41:35;39.30;;;16.73;;
20034;SDS011;10178;48.034;9.800;2022-12-18T08:44:00;38.67;;;15.80;;
20034;SDS011;10178;48.034;9.800;2022-12-18T08:46:44;41.53;;;16.97;;
20034;SDS011;10178;48.034;9.800;2022-12-18T08:49:10;39.87;;;17.60;;
20034;SDS011;10178;48.034;9.800;2022-12-18T08:51:37;37.97;;;17.53;;
20034;SDS011;10178;48.034;9.800;2022-12-18T08:54:03;36.83;;;16.57;;
20034;SDS011;10178;48.034;9.800;2022-12-18T08:56:29;34.87;;;16.70;;
20034;SDS011;10178;48.034;9.800;2022-12-18T08:58:55;35.73;;;15.83;;
20034;SDS011;10178;48.034;9.800;2022-12-18T09:01:21;32.80;;;16.13;;
20034;SDS011;10178;48.034;9.800;2022-12-18T09:03:48;37.13;;;17.27;;
20034;SDS011;10178;48.034;9.800;2022-12-18T09:06:15;33.03;;;15.73;;
20034;SDS011;10178;48.034;9.800;2022-12-18T09:08:43;33.57;;;15.37;;
20034;SDS011;10178;48.034;9.800;2022-12-18T09:11:14;32.10;;;16.30;;
20034;SDS011;10178;48.034;9.800;2022-12-18T09:13:47;57.87;;;22.00;;
20034;SDS011;10178;48.034;9.800;2022-12-18T09:16:13;32.80;;;14.73;;
20034;SDS011;10178;48.034;9.800;2022-12-18T09:18:39;34.90;;;16.63;;
20034;SDS011;10178;48.034;9.800;2022-12-18T09:21:12;32.17;;;14.90;;
20034;SDS011;10178;48.034;9.800;2022-12-18T09:23:43;36.60;;;15.43;;
20034;SDS011;10178;48.034;9.800;2022-12-18T09:26:09;38.30;;;16.60;;
20034;SDS011;10178;48.034;9.800;2022-12-18T09:28:35;42.00;;;17.33;;
20034;SDS011;10178;48.034;9.800;2022-12-18T09:31:07;39.70;;;16.20;;
20034;SDS011;10178;48.034;9.800;2022-12-18T09:33:37;42.17;;;16.93;;
20034;SDS011;10178;48.034;9.800;2022-12-18T09:36:03;40.40;;;16.43;;
20034;SDS011;10178;48.034;9.800;2022-12-18T09:38:30;38.57;;;16.60;;
20034;SDS011;10178;48.034;9.800;2022-12-18T09:41:00;37.90;;;16.87;;
20034;SDS011;10178;48.034;9.800;2022-12-18T09:43:45;40.97;;;17.13;;
20034;SDS011;10178;48.034;9.800;2022-12-18T09:46:20;38.37;;;15.63;;
20034;SDS011;10178;48.034;9.800;2022-12-18T09:48:52;35.60;;;16.33;;
20034;SDS011;10178;48.034;9.800;2022-12-18T09:51:22;37.23;;;16.20;;
20034;SDS011;10178;48.034;9.800;2022-12-18T09:53:59;31.73;;;15.57;;
20034;SDS011;10178;48.034;9.800;2022-12-18T09:56:38;31.17;;;14.20;;
20034;SDS011;10178;48.034;9.800;2022-12-18T09:59:09;33.07;;;15.27;;
20034;SDS011;10178;48.034;9.800;2022-12-18T10:01:58;31.93;;;15.30;;
20034;SDS011;10178;48.034;9.800;2022-12-18T10:04:24;31.93;;;15.13;;
20034;SDS011;10178;48.034;9.800;2022-12-18T10:06:58;30.70;;;13.90;;
20034;SDS011;10178;48.034;9.800;2022-12-18T10:12:25;34.20;;;13.60;;
20034;SDS011;10178;48.034;9.800;2022-12-18T10:20:46;32.67;;;14.70;;
20034;SDS011;10178;48.034;9.800;2022-12-18T10:23:20;38.47;;;15.93;;
20034;SDS011;10178;48.034;9.800;2022-12-18T10:25:55;32.80;;;14.23;;
20034;SDS011;10178;48.034;9.800;2022-12-18T10:28:31;35.10;;;15.40;;
20034;SDS011;10178;48.034;9.800;2022-12-18T10:31:00;31.53;;;14.83;;
20034;SDS011;10178;48.034;9.800;2022-12-18T10:33:28;32.03;;;14.73;;
20034;SDS011;10178;48.034;9.800;2022-12-18T10:35:55;29.77;;;13.63;;
20034;SDS011;10178;48.034;9.800;2022-12-18T10:38:23;35.07;;;15.70;;
20034;SDS011;10178;48.034;9.800;2022-12-18T10:43:28;32.97;;;14.07;;
20034;SDS011;10178;48.034;9.800;2022-12-18T10:51:19;36.03;;;15.23;;
20034;SDS011;10178;48.034;9.800;2022-12-18T10:57:04;28.07;;;13.07;;
20034;SDS011;10178;48.034;9.800;2022-12-18T10:59:52;35.10;;;14.23;;
20034;SDS011;10178;48.034;9.800;2022-12-18T11:02:36;32.77;;;15.13;;
20034;SDS011;10178;48.034;9.800;2022-12-18T11:05:04;31.37;;;14.10;;
20034;SDS011;10178;48.034;9.800;2022-12-18T11:07:58;41.53;;;16.10;;
20034;SDS011;10178;48.034;9.800;2022-12-18T11:10:30;36.47;;;15.67;;
20034;SDS011;10178;48.034;9.800;2022-12-18T11:13:11;40.33;;;15.70;;
20034;SDS011;10178;48.034;9.800;2022-12-18T11:15:43;41.87;;;16.50;;
20034;SDS011;10178;48.034;9.800;2022-12-18T11:21:05;34.80;;;14.07;;
20034;SDS011;10178;48.034;9.800;2022-12-18T11:23:34;36.03;;;15.13;;
20034;SDS011;10178;48.034;9.800;2022-12-18T11:26:01;33.73;;;14.30;;
20034;SDS011;10178;48.034;9.800;2022-12-18T11:31:34;34.10;;;14.37;;
20034;SDS011;10178;48.034;9.800;2022-12-18T11:36:42;35.43;;;14.83;;
20034;SDS011;10178;48.034;9.800;2022-12-18T11:42:01;46.17;;;18.10;;
20034;SDS011;10178;48.034;9.800;2022-12-18T11:52:50;37.47;;;15.53;;
20034;SDS011;10178;48.034;9.800;2022-12-18T11:55:19;32.93;;;14.50;;
20034;SDS011;10178;48.034;9.800;2022-12-18T12:00:37;40.33;;;17.23;;
20034;SDS011;10178;48.034;9.800;2022-12-18T12:27:13;47.13;;;17.13;;
20034;SDS011;10178;48.034;9.800;2022-12-18T12:40:31;48.87;;;17.17;;
20034;SDS011;10178;48.034;9.800;2022-12-18T12:43:07;49.77;;;20.03;;
20034;SDS011;10178;48.034;9.800;2022-12-18T12:45:54;47.80;;;16.57;;
20034;SDS011;10178;48.034;9.800;2022-12-18T12:48:47;44.03;;;16.30;;
20034;SDS011;10178;48.034;9.800;2022-12-18T12:51:25;103.67;;;20.80;;
20034;SDS011;10178;48.034;9.800;2022-12-18T12:53:58;53.83;;;18.77;;
20034;SDS011;10178;48.034;9.800;2022-12-18T13:02:15;53.17;;;18.87;;
20034;SDS011;10178;48.034;9.800;2022-12-18T13:05:09;47.53;;;18.17;;
20034;SDS011;10178;48.034;9.800;2022-12-18T13:08:08;50.57;;;16.77;;
20034;SDS011;10178;48.034;9.800;2022-12-18T13:13:03;48.00;;;18.60;;
20034;SDS011;10178;48.034;9.800;2022-12-18T13:20:38;45.27;;;17.17;;
20034;SDS011;10178;48.034;9.800;2022-12-18T13:23:19;44.37;;;16.50;;
20034;SDS011;10178;48.034;9.800;2022-12-18T13:25:54;41.43;;;16.30;;
20034;SDS011;10178;48.034;9.800;2022-12-18T13:34:15;43.40;;;15.83;;
20034;SDS011;10178;48.034;9.800;2022-12-18T13:36:45;38.23;;;15.33;;
20034;SDS011;10178;48.034;9.800;2022-12-18T13:41:44;37.13;;;15.03;;
20034;SDS011;10178;48.034;9.800;2022-12-18T13:51:39;39.93;;;15.90;;
20034;SDS011;10178;48.034;9.800;2022-12-18T13:56:57;41.37;;;15.00;;
20034;SDS011;10178;48.034;9.800;2022-12-18T13:59:24;45.30;;;17.70;;
20034;SDS011;10178;48.034;9.800;2022-12-18T14:04:37;41.90;;;16.63;;
20034;SDS011;10178;48.034;9.800;2022-12-18T14:07:10;44.03;;;17.77;;
20034;SDS011;10178;48.034;9.800;2022-12-18T14:09:46;46.73;;;17.87;;
20034;SDS011;10178;48.034;9.800;2022-12-18T14:12:40;37.97;;;14.60;;
20034;SDS011;10178;48.034;9.800;2022-12-18T14:17:50;40.30;;;16.00;;
20034;SDS011;10178;48.034;9.800;2022-12-18T14:20:17;40.40;;;15.10;;
20034;SDS011;10178;48.034;9.800;2022-12-18T14:22:46;47.03;;;16.83;;
20034;SDS011;10178;48.034;9.800;2022-12-18T14:25:16;44.17;;;17.37;;
20034;SDS011;10178;48.034;9.800;2022-12-18T14:27:48;39.13;;;15.73;;
20034;SDS011;10178;48.034;9.800;2022-12-18T14:30:32;38.77;;;15.57;;
20034;SDS011;10178;48.034;9.800;2022-12-18T14:33:02;40.17;;;15.67;;
20034;SDS011;10178;48.034;9.800;2022-12-18T14:35:40;41.77;;;15.67;;
20034;SDS011;10178;48.034;9.800;2022-12-18T14:40:52;39.93;;;15.93;;
20034;SDS011;10178;48.034;9.800;2022-12-18T14:43:31;38.60;;;15.20;;
20034;SDS011;10178;48.034;9.800;2022-12-18T14:45:58;38.77;;;15.37;;
20034;SDS011;10178;48.034;9.800;2022-12-18T14:51:07;41.53;;;16.00;;
20034;SDS011;10178;48.034;9.800;2022-12-18T14:53:48;40.80;;;15.33;;
20034;SDS011;10178;48.034;9.800;2022-12-18T14:56:26;36.80;;;15.47;;
20034;SDS011;10178;48.034;9.800;2022-12-18T14:59:11;48.13;;;19.57;;
20034;SDS011;10178;48.034;9.800;2022-12-18T15:10:02;46.47;;;17.23;;
20034;SDS011;10178;48.034;9.800;2022-12-18T15:12:33;50.33;;;19.67;;
20034;SDS011;10178;48.034;9.800;2022-12-18T15:15:00;53.00;;;21.37;;
20034;SDS011;10178;48.034;9.800;2022-12-18T15:17:27;49.93;;;20.50;;
20034;SDS011;10178;48.034;9.800;2022-12-18T15:20:03;45.07;;;18.27;;
20034;SDS011;10178;48.034;9.800;2022-12-18T15:22:35;49.57;;;19.03;;
20034;SDS011;10178;48.034;9.800;2022-12-18T15:25:01;45.50;;;17.57;;
20034;SDS011;10178;48.034;9.800;2022-12-18T15:27:46;44.90;;;17.77;;
20034;SDS011;10178;48.034;9.800;2022-12-18T15:30:16;39.53;;;16.40;;
20034;SDS011;10178;48.034;9.800;2022-12-18T15:32:44;41.87;;;17.90;;
20034;SDS011;10178;48.034;9.800;2022-12-18T15:37:35;40.60;;;16.27;;
20034;SDS011;10178;48.034;9.800;2022-12-18T15:40:02;38.83;;;15.50;;
20034;SDS011;10178;48.034;9.800;2022-12-18T15:42:28;37.70;;;15.83;;
20034;SDS011;10178;48.034;9.800;2022-12-18T15:45:13;46.47;;;17.60;;
20034;SDS011;10178;48.034;9.800;2022-12-18T15:47:39;47.90;;;19.70;;
20034;SDS011;10178;48.034;9.800;2022-12-18T15:50:07;42.23;;;18.40;;
20034;SDS011;10178;48.034;9.800;2022-12-18T15:52:35;40.47;;;17.87;;
20034;SDS011;10178;48.034;9.800;2022-12-18T15:55:14;40.97;;;16.37;;
20034;SDS011;10178;48.034;9.800;2022-12-18T15:58:03;76.70;;;26.40;;
20034;SDS011;10178;48.034;9.800;2022-12-18T16:00:33;48.27;;;19.37;;
20034;SDS011;10178;48.034;9.800;2022-12-18T16:03:01;55.97;;;22.83;;
20034;SDS011;10178;48.034;9.800;2022-12-18T16:05:29;59.33;;;22.97;;
20034;SDS011;10178;48.034;9.800;2022-12-18T16:07:55;86.53;;;30.37;;
20034;SDS011;10178;48.034;9.800;2022-12-18T16:10:21;134.30;;;45.90;;
20034;SDS011;10178;48.034;9.800;2022-12-18T16:12:48;68.00;;;25.77;;
20034;SDS011;10178;48.034;9.800;2022-12-18T16:15:14;54.90;;;22.27;;
20034;SDS011;10178;48.034;9.800;2022-12-18T16:17:41;59.47;;;22.60;;
20034;SDS011;10178;48.034;9.800;2022-12-18T16:20:18;56.37;;;21.03;;
20034;SDS011;10178;48.034;9.800;2022-12-18T16:22:45;50.23;;;20.27;;
20034;SDS011;10178;48.034;9.800;2022-12-18T16:25:21;55.63;;;18.87;;
20034;SDS011;10178;48.034;9.800;2022-12-18T16:27:51;50.67;;;18.83;;
20034;SDS011;10178;48.034;9.800;2022-12-18T16:30:21;58.60;;;20.03;;
20034;SDS011;10178;48.034;9.800;2022-12-18T16:32:49;56.07;;;19.87;;
20034;SDS011;10178;48.034;9.800;2022-12-18T16:35:15;59.17;;;21.37;;
20034;SDS011;10178;48.034;9.800;2022-12-18T16:37:41;54.23;;;19.83;;
20034;SDS011;10178;48.034;9.800;2022-12-18T16:40:08;57.17;;;20.27;;
20034;SDS011;10178;48.034;9.800;2022-12-18T16:42:36;55.17;;;21.57;;
20034;SDS011;10178;48.034;9.800;2022-12-18T16:45:03;48.63;;;19.47;;
20034;SDS011;10178;48.034;9.800;2022-12-18T16:47:29;48.43;;;19.70;;
20034;SDS011;10178;48.034;9.800;2022-12-18T16:49:55;46.90;;;18.50;;
20034;SDS011;10178;48.034;9.800;2022-12-18T16:52:21;61.77;;;24.50;;
20034;SDS011;10178;48.034;9.800;2022-12-18T16:54:47;50.87;;;20.67;;
20034;SDS011;10178;48.034;9.800;2022-12-18T16:57:13;43.13;;;18.80;;
20034;SDS011;10178;48.034;9.800;2022-12-18T16:59:40;49.13;;;19.60;;
20034;SDS011;10178;48.034;9.800;2022-12-18T17:02:13;51.10;;;19.67;;
20034;SDS011;10178;48.034;9.800;2022-12-18T17:04:43;46.27;;;18.73;;
20034;SDS011;10178;48.034;9.800;2022-12-18T17:07:09;48.57;;;18.63;;
20034;SDS011;10178;48.034;9.800;2022-12-18T17:09:35;58.87;;;22.03;;
20034;SDS011;10178;48.034;9.800;2022-12-18T17:12:02;67.37;;;24.30;;
20034;SDS011;10178;48.034;9.800;2022-12-18T17:14:27;58.20;;;22.17;;
20034;SDS011;10178;48.034;9.800;2022-12-18T17:16:53;68.57;;;23.77;;